Time;durP1;ratioP1;P1;durP2;ratioP2;P2;SDS_P1;SDS_P2;PMS_P1;PMS_P2;Temp;Humidity;BMP_temperature;BMP_pressure;BME280_temperature;BME280_humidity;BME280_pressure;Samples;Min_cycle;Max_cycle;Signal;HPM_P1;HPM_P2
2023/09/04 00:01:50;;;;;;;3.65;2.15;;;21.50;72.00;;;;;;5071584;28;20052;-58
2023/09/04 00:04:16;;;;;;;4.80;2.05;;;21.50;72.00;;;;;;5071528;28;20052;-58
2023/09/04 00:06:41;;;;;;;3.67;1.75;;;21.50;72.00;;;;;;5072721;28;20054;-58
2023/09/04 00:09:07;;;;;;;3.50;1.73;;;21.50;72.00;;;;;;5086198;28;20552;-57
2023/09/04 00:11:32;;;;;;;3.10;1.75;;;21.50;72.00;;;;;;5091313;28;20040;-58
2023/09/04 00:13:58;;;;;;;2.95;1.95;;;21.50;72.00;;;;;;5093334;28;20043;-58
2023/09/04 00:16:23;;;;;;;4.00;1.90;;;21.50;72.00;;;;;;5092128;28;20048;-58
2023/09/04 00:18:49;;;;;;;4.20;2.00;;;21.40;71.90;;;;;;5092267;28;20058;-58
2023/09/04 00:21:15;;;;;;;3.90;1.77;;;21.40;71.90;;;;;;5093321;28;20548;-57
2023/09/04 00:23:41;;;;;;;3.60;1.83;;;21.40;71.90;;;;;;5093117;28;20087;-58
2023/09/04 00:26:06;;;;;;;3.83;2.00;;;21.40;72.50;;;;;;5092637;28;20522;-58
2023/09/04 00:28:32;;;;;;;5.50;2.20;;;21.40;71.90;;;;;;5093465;28;20039;-58
2023/09/04 00:30:57;;;;;;;3.67;2.40;;;21.40;71.90;;;;;;5092899;28;20046;-58
2023/09/04 00:33:23;;;;;;;3.67;1.95;;;21.40;71.90;;;;;;5092295;28;20071;-58
2023/09/04 00:35:49;;;;;;;3.33;2.00;;;21.40;71.90;;;;;;5092733;28;20105;-58
2023/09/04 00:38:14;;;;;;;4.18;2.30;;;21.40;71.90;;;;;;5093012;28;20541;-58
2023/09/04 00:40:40;;;;;;;4.30;2.13;;;21.40;71.90;;;;;;5091979;28;20066;-58
2023/09/04 00:43:06;;;;;;;4.15;2.08;;;21.40;71.90;;;;;;5092349;28;20055;-58
2023/09/04 00:45:32;;;;;;;5.18;2.10;;;21.40;71.90;;;;;;5092305;28;20084;-58
2023/09/04 00:47:58;;;;;;;3.08;1.92;;;21.40;72.00;;;;;;5092450;28;20373;-58
2023/09/04 00:50:24;;;;;;;3.75;2.10;;;21.40;71.90;;;;;;5092869;28;20051;-58
2023/09/04 00:52:55;;;;;;;3.60;2.20;;;21.40;72.00;;;;;;5091711;28;20097;-58
2023/09/04 00:55:21;;;;;;;3.70;2.05;;;21.40;71.90;;;;;;5091825;28;20040;-58
2023/09/04 00:57:46;;;;;;;5.10;2.30;;;21.40;71.90;;;;;;5090895;28;20047;-58
2023/09/04 01:00:19;;;;;;;3.67;2.05;;;21.40;71.90;;;;;;5090806;28;20472;-58
2023/09/04 01:02:45;;;;;;;3.20;1.95;;;21.40;71.90;;;;;;5091386;28;20105;-58
2023/09/04 01:05:14;;;;;;;4.45;2.30;;;21.40;71.90;;;;;;5088209;28;20512;-58
2023/09/04 01:07:40;;;;;;;3.90;2.13;;;21.40;71.90;;;;;;5071219;28;20040;-58
2023/09/04 01:10:07;;;;;;;3.75;1.95;;;21.30;71.90;;;;;;5072253;28;20432;-58
2023/09/04 01:12:47;;;;;;;3.33;1.95;;;21.30;71.90;;;;;;5072309;28;20452;-58
2023/09/04 01:15:12;;;;;;;5.18;2.30;;;21.40;71.90;;;;;;5074605;28;20047;-58
2023/09/04 01:17:38;;;;;;;3.63;2.10;;;21.30;71.90;;;;;;5075035;28;20037;-58
2023/09/04 01:20:29;;;;;;;4.22;2.22;;;21.30;72.50;;;;;;5058479;28;20044;-58
2023/09/04 01:22:55;;;;;;;5.63;1.98;;;21.30;71.80;;;;;;5075169;28;20044;-58
2023/09/04 01:25:46;;;;;;;3.38;1.90;;;21.30;71.80;;;;;;5076512;28;20497;-58
2023/09/04 01:28:21;;;;;;;5.95;3.15;;;21.30;71.80;;;;;;5074188;28;20573;-58
2023/09/04 01:31:20;;;;;;;3.33;1.95;;;21.30;71.80;;;;;;5078517;28;20411;-58
2023/09/04 01:33:49;;;;;;;3.78;2.25;;;21.30;71.80;;;;;;5094898;28;20042;-58
2023/09/04 01:36:16;;;;;;;4.43;2.47;;;21.30;71.80;;;;;;5095496;28;20105;-58
2023/09/04 01:38:43;;;;;;;3.47;2.00;;;21.30;71.80;;;;;;5095963;28;20411;-58
2023/09/04 01:41:09;;;;;;;3.80;2.38;;;21.30;71.80;;;;;;5094720;28;20475;-58
2023/09/04 01:43:35;;;;;;;3.45;1.90;;;21.30;71.80;;;;;;5093907;28;20086;-58
2023/09/04 01:46:03;;;;;;;4.05;2.10;;;21.30;71.80;;;;;;5096065;28;20047;-58
2023/09/04 01:48:28;;;;;;;4.38;2.03;;;21.30;71.80;;;;;;5094866;28;20123;-58
2023/09/04 01:50:54;;;;;;;3.80;2.08;;;21.30;71.80;;;;;;5095020;28;20124;-58
2023/09/04 01:53:21;;;;;;;3.50;1.95;;;21.30;71.80;;;;;;5096437;28;20044;-58
2023/09/04 01:55:47;;;;;;;4.13;2.25;;;21.20;71.70;;;;;;5095196;28;20076;-58
2023/09/04 01:58:12;;;;;;;3.38;2.05;;;21.20;71.70;;;;;;5079021;28;20095;-58
2023/09/04 02:00:38;;;;;;;3.47;1.90;;;21.20;71.70;;;;;;5080260;28;20044;-58
2023/09/04 02:03:04;;;;;;;6.32;2.38;;;21.20;71.70;;;;;;5094931;28;20040;-58
2023/09/04 02:05:29;;;;;;;4.15;2.00;;;21.20;71.70;;;;;;5095577;28;20036;-58
2023/09/04 02:07:55;;;;;;;4.15;2.20;;;21.20;72.30;;;;;;5095576;28;20079;-58
2023/09/04 02:10:23;;;;;;;4.43;2.28;;;21.20;71.70;;;;;;5093819;28;20058;-58
2023/09/04 02:12:49;;;;;;;3.35;2.00;;;21.20;71.70;;;;;;5095691;28;20032;-58
2023/09/04 02:15:15;;;;;;;3.38;2.08;;;21.20;71.70;;;;;;5096049;28;20399;-58
2023/09/04 02:17:41;;;;;;;4.88;2.40;;;21.20;71.70;;;;;;5094668;28;20043;-58
2023/09/04 02:20:07;;;;;;;3.67;2.13;;;21.20;71.70;;;;;;5094336;28;20044;-59
2023/09/04 02:22:33;;;;;;;4.40;2.22;;;21.20;71.60;;;;;;5095294;28;20097;-58
2023/09/04 02:24:58;;;;;;;3.83;2.30;;;21.20;71.70;;;;;;5093487;28;20130;-58
2023/09/04 02:27:24;;;;;;;4.03;1.88;;;21.20;71.60;;;;;;5095544;28;20547;-58
2023/09/04 02:29:49;;;;;;;3.17;1.95;;;21.20;71.60;;;;;;5095191;28;20042;-58
2023/09/04 02:32:15;;;;;;;2.60;1.77;;;21.20;71.60;;;;;;5094622;28;20047;-58
2023/09/04 02:34:41;;;;;;;3.58;2.00;;;21.20;71.60;;;;;;5095133;28;20395;-58
2023/09/04 02:37:06;;;;;;;4.38;2.25;;;21.20;71.60;;;;;;5095074;28;20097;-58
2023/09/04 02:39:32;;;;;;;3.28;1.83;;;21.20;71.60;;;;;;5094854;28;20086;-58
2023/09/04 02:41:57;;;;;;;2.80;1.90;;;21.20;71.60;;;;;;5095007;28;20043;-57
2023/09/04 02:44:23;;;;;;;4.95;2.00;;;21.20;71.60;;;;;;5095124;28;20050;-58
2023/09/04 02:46:48;;;;;;;3.25;2.15;;;21.20;71.60;;;;;;5094115;28;20040;-58
2023/09/04 02:49:14;;;;;;;4.07;2.22;;;21.20;71.60;;;;;;5095216;28;20036;-58
2023/09/04 02:51:40;;;;;;;3.70;1.90;;;21.10;71.60;;;;;;5094836;28;20479;-58
2023/09/04 02:54:05;;;;;;;3.95;2.03;;;21.20;71.60;;;;;;5094174;28;20059;-58
2023/09/04 02:56:31;;;;;;;3.53;2.20;;;21.10;71.50;;;;;;5095090;28;20051;-58
2023/09/04 02:58:56;;;;;;;3.58;1.98;;;21.10;71.50;;;;;;5094647;28;20147;-58
2023/09/04 03:01:22;;;;;;;4.15;2.03;;;21.10;71.50;;;;;;5094079;28;20051;-58
2023/09/04 03:03:48;;;;;;;3.38;2.22;;;21.10;71.60;;;;;;5094253;28;20044;-58
2023/09/04 03:06:13;;;;;;;4.05;1.92;;;21.10;71.50;;;;;;5093934;28;20395;-58
2023/09/04 03:08:39;;;;;;;2.95;1.80;;;21.10;71.50;;;;;;5094554;28;20488;-58
2023/09/04 03:11:10;;;;;;;2.97;1.73;;;21.10;71.50;;;;;;5094492;28;20372;-58
2023/09/04 03:13:39;;;;;;;3.17;2.20;;;21.10;71.50;;;;;;5093793;28;20104;-58
2023/09/04 03:16:08;;;;;;;3.15;1.80;;;21.10;71.50;;;;;;5094417;28;20043;-58
2023/09/04 03:18:34;;;;;;;3.72;1.85;;;21.10;71.50;;;;;;5094785;28;20032;-58
2023/09/04 03:21:01;;;;;;;2.88;1.85;;;21.10;71.50;;;;;;5093591;28;20070;-57
2023/09/04 03:23:26;;;;;;;3.00;1.70;;;21.10;71.50;;;;;;5094382;28;20130;-58
2023/09/04 03:25:52;;;;;;;3.95;2.00;;;21.00;71.40;;;;;;5093970;28;20131;-58
2023/09/04 03:28:17;;;;;;;3.80;1.80;;;21.10;71.50;;;;;;5093863;28;20123;-58
2023/09/04 03:30:43;;;;;;;3.25;2.08;;;21.10;71.50;;;;;;5092634;28;20438;-58
2023/09/04 03:33:09;;;;;;;3.63;1.80;;;21.10;71.50;;;;;;5093960;28;20040;-58
2023/09/04 03:35:34;;;;;;;2.95;1.70;;;21.10;71.50;;;;;;5093103;28;20036;-58
2023/09/04 03:38:00;;;;;;;3.90;1.90;;;21.00;71.40;;;;;;5093811;28;20113;-58
2023/09/04 03:40:26;;;;;;;2.58;1.70;;;21.00;71.40;;;;;;5094095;28;20115;-58
2023/09/04 03:42:52;;;;;;;4.60;1.80;;;21.00;71.40;;;;;;5092867;28;20052;-58
2023/09/04 03:45:18;;;;;;;3.75;1.90;;;21.00;71.40;;;;;;5094192;28;20044;-58
2023/09/04 03:47:44;;;;;;;3.95;1.90;;;21.00;71.40;;;;;;5093930;28;20463;-58
2023/09/04 03:50:11;;;;;;;2.55;1.67;;;21.00;71.40;;;;;;5093294;28;20044;-58
2023/09/04 03:52:38;;;;;;;3.22;1.90;;;21.00;71.40;;;;;;5092177;28;20032;-58
2023/09/04 03:55:06;;;;;;;3.40;1.92;;;21.00;71.40;;;;;;5093713;28;20096;-57
2023/09/04 03:57:31;;;;;;;2.53;1.70;;;21.00;71.40;;;;;;5092993;28;20093;-58
2023/09/04 03:59:57;;;;;;;3.03;1.73;;;21.00;71.40;;;;;;5093643;28;20040;-57
2023/09/04 04:02:23;;;;;;;3.67;2.00;;;21.00;71.40;;;;;;5092102;28;20039;-58
2023/09/04 04:04:52;;;;;;;3.03;1.60;;;21.00;71.40;;;;;;5092923;28;20411;-58
2023/09/04 04:07:17;;;;;;;3.30;1.70;;;21.00;71.40;;;;;;5091977;28;20043;-58
2023/09/04 04:09:44;;;;;;;3.55;1.98;;;21.00;71.40;;;;;;5092487;28;20130;-58
2023/09/04 04:12:10;;;;;;;2.88;1.63;;;21.00;71.40;;;;;;5093550;28;20043;-58
2023/09/04 04:14:36;;;;;;;2.58;1.58;;;21.00;71.40;;;;;;5093107;28;20043;-58
2023/09/04 04:17:01;;;;;;;2.83;1.77;;;21.00;71.40;;;;;;5092806;28;20051;-58
2023/09/04 04:19:28;;;;;;;2.85;1.70;;;21.00;71.40;;;;;;5093411;28;20044;-58
2023/09/04 04:21:53;;;;;;;2.35;1.40;;;21.00;71.40;;;;;;5093171;28;20579;-58
2023/09/04 04:24:20;;;;;;;3.60;2.00;;;21.00;71.40;;;;;;5092721;28;20123;-58
2023/09/04 04:26:46;;;;;;;3.10;1.80;;;21.00;71.40;;;;;;5091578;28;20040;-57
2023/09/04 04:29:11;;;;;;;2.90;1.70;;;21.00;71.40;;;;;;5093309;28;20058;-58
2023/09/04 04:31:37;;;;;;;3.25;1.77;;;20.90;71.30;;;;;;5091082;28;20480;-58
2023/09/04 04:34:03;;;;;;;3.38;1.80;;;21.00;71.30;;;;;;5091763;28;20115;-58
2023/09/04 04:36:30;;;;;;;3.53;1.90;;;20.90;71.30;;;;;;5091939;28;20128;-58
2023/09/04 04:38:55;;;;;;;2.15;1.33;;;20.90;71.30;;;;;;5090866;28;20415;-58
2023/09/04 04:41:21;;;;;;;3.22;1.77;;;21.00;71.40;;;;;;5093158;28;20054;-58
2023/09/04 04:43:46;;;;;;;2.88;1.52;;;20.90;71.30;;;;;;5092534;28;20047;-58
2023/09/04 04:46:17;;;;;;;2.75;1.52;;;20.90;71.30;;;;;;5091760;28;20457;-58
2023/09/04 04:48:42;;;;;;;2.08;1.40;;;20.90;71.30;;;;;;5091618;28;20087;-58
2023/09/04 04:51:10;;;;;;;3.15;1.50;;;20.90;71.30;;;;;;5092734;28;20063;-57
2023/09/04 04:53:36;;;;;;;2.25;1.58;;;20.90;71.30;;;;;;5091874;28;20040;-58
2023/09/04 04:56:02;;;;;;;2.35;1.33;;;20.90;71.30;;;;;;5092675;28;20055;-58
2023/09/04 04:58:27;;;;;;;2.58;1.38;;;20.90;71.30;;;;;;5093037;28;20047;-58
2023/09/04 05:00:53;;;;;;;2.88;1.52;;;20.90;71.30;;;;;;5091823;28;20079;-57
2023/09/04 05:03:19;;;;;;;2.05;1.50;;;20.90;71.30;;;;;;5092566;28;20051;-58
2023/09/04 05:05:45;;;;;;;2.15;1.50;;;20.90;71.30;;;;;;5091376;28;20044;-58
2023/09/04 05:08:10;;;;;;;2.85;1.38;;;20.90;71.30;;;;;;5091316;28;20051;-58
2023/09/04 05:10:36;;;;;;;3.20;1.50;;;20.90;71.30;;;;;;5081068;28;20040;-58
2023/09/04 05:13:02;;;;;;;3.10;1.50;;;20.90;71.30;;;;;;5071641;28;20044;-58
2023/09/04 05:15:27;;;;;;;2.05;1.42;;;20.80;71.30;;;;;;5091386;28;20036;-58
2023/09/04 05:17:53;;;;;;;2.90;1.58;;;20.90;71.30;;;;;;5092435;28;20048;-58
2023/09/04 05:20:18;;;;;;;2.58;1.38;;;20.90;71.30;;;;;;5090406;28;20044;-58
2023/09/04 05:22:44;;;;;;;2.63;1.58;;;20.90;71.30;;;;;;5092291;28;20170;-58
2023/09/04 05:25:11;;;;;;;2.47;1.50;;;20.80;71.30;;;;;;5092162;28;20040;-58
2023/09/04 05:27:37;;;;;;;2.22;1.60;;;20.80;71.30;;;;;;5077870;28;20041;-58
2023/09/04 05:30:03;;;;;;;3.58;1.48;;;20.80;71.30;;;;;;5072478;28;20049;-58
2023/09/04 05:32:29;;;;;;;3.80;1.58;;;20.80;71.30;;;;;;5072351;28;20043;-58
2023/09/04 05:34:54;;;;;;;2.53;1.40;;;20.90;71.30;;;;;;5071097;28;20036;-58
2023/09/04 05:37:20;;;;;;;2.30;1.42;;;20.80;71.30;;;;;;5071886;28;20492;-58
2023/09/04 05:39:46;;;;;;;3.17;1.25;;;20.80;71.30;;;;;;5071728;28;20048;-60
2023/09/04 05:42:12;;;;;;;4.63;1.77;;;20.80;71.30;;;;;;5069854;28;20048;-58
2023/09/04 05:44:37;;;;;;;13.60;2.30;;;20.80;71.20;;;;;;5072274;28;20048;-59
2023/09/04 05:47:03;;;;;;;9.85;2.40;;;20.80;71.30;;;;;;5071978;28;20041;-58
2023/09/04 05:49:29;;;;;;;13.63;2.55;;;20.80;71.20;;;;;;5071409;28;20384;-58
2023/09/04 05:51:54;;;;;;;9.80;2.58;;;20.80;71.20;;;;;;5071459;28;20104;-59
2023/09/04 05:54:20;;;;;;;10.57;2.80;;;20.90;71.30;;;;;;5071898;28;20045;-58
2023/09/04 05:56:46;;;;;;;9.52;1.95;;;20.90;71.30;;;;;;5081077;28;20047;-58
2023/09/04 05:59:13;;;;;;;11.10;2.40;;;20.90;71.30;;;;;;5094503;28;20403;-58
2023/09/04 06:01:38;;;;;;;8.82;2.50;;;20.90;71.30;;;;;;5095879;28;20040;-58
2023/09/04 06:04:04;;;;;;;11.23;2.22;;;20.90;71.40;;;;;;5093883;28;20452;-58
2023/09/04 06:06:30;;;;;;;12.65;2.50;;;20.90;71.40;;;;;;5094521;28;20475;-58
2023/09/04 06:08:56;;;;;;;13.68;2.47;;;20.90;71.40;;;;;;5094641;28;20178;-58
2023/09/04 06:11:21;;;;;;;12.13;2.65;;;20.90;71.40;;;;;;5095683;28;20089;-58
2023/09/04 06:13:48;;;;;;;7.82;2.10;;;20.90;71.50;;;;;;5094537;28;20055;-58
2023/09/04 06:16:16;;;;;;;8.52;1.88;;;20.90;71.60;;;;;;5094986;28;20398;-58
2023/09/04 06:18:42;;;;;;;10.43;2.70;;;21.00;71.70;;;;;;5094438;28;20130;-58
2023/09/04 06:21:08;;;;;;;9.65;2.20;;;20.90;71.70;;;;;;5094998;28;20127;-57
2023/09/04 06:23:34;;;;;;;10.90;2.85;;;20.90;71.70;;;;;;5091550;28;20066;-58
2023/09/04 06:26:03;;;;;;;15.50;2.65;;;20.90;71.70;;;;;;5095557;28;20456;-58
2023/09/04 06:28:28;;;;;;;14.38;2.58;;;21.00;71.90;;;;;;5094508;28;20071;-58
2023/09/04 06:30:55;;;;;;;13.13;2.55;;;21.00;72.00;;;;;;5094465;28;20121;-58
2023/09/04 06:33:21;;;;;;;9.80;2.55;;;21.00;72.00;;;;;;5095673;28;20040;-58
2023/09/04 06:35:47;;;;;;;8.95;2.58;;;21.00;72.10;;;;;;5093682;28;20438;-58
2023/09/04 06:38:14;;;;;;;7.05;2.38;;;21.00;72.10;;;;;;5094392;28;20048;-58
2023/09/04 06:40:40;;;;;;;10.25;2.33;;;21.00;72.10;;;;;;5095019;28;20403;-58
2023/09/04 06:43:05;;;;;;;12.55;2.55;;;21.00;72.20;;;;;;5095187;28;20130;-58
2023/09/04 06:45:31;;;;;;;14.52;2.50;;;21.00;72.20;;;;;;5093192;28;20036;-58
2023/09/04 06:47:57;;;;;;;13.88;2.58;;;21.10;72.30;;;;;;5091682;28;20039;-57
2023/09/04 06:50:22;;;;;;;11.82;2.40;;;21.00;72.30;;;;;;5094276;28;20126;-58
2023/09/04 06:52:48;;;;;;;13.32;2.45;;;21.10;72.40;;;;;;5092032;28;20048;-57
2023/09/04 06:55:13;;;;;;;8.48;2.38;;;21.10;72.40;;;;;;5094781;28;20052;-58
2023/09/04 06:57:39;;;;;;;11.25;2.47;;;21.10;72.50;;;;;;5093644;28;20131;-58
2023/09/04 07:00:08;;;;;;;6.15;2.20;;;21.10;72.40;;;;;;5093992;28;20044;-58
2023/09/04 07:02:35;;;;;;;9.18;2.33;;;21.20;72.40;;;;;;5093960;28;20047;-58
2023/09/04 07:05:00;;;;;;;10.43;2.15;;;21.10;72.30;;;;;;5094817;28;20048;-58
2023/09/04 07:07:26;;;;;;;7.68;2.08;;;21.10;72.30;;;;;;5093449;28;20032;-57
2023/09/04 07:09:51;;;;;;;7.88;2.30;;;21.10;72.20;;;;;;5093420;28;20047;-57
2023/09/04 07:12:17;;;;;;;9.65;2.47;;;21.10;72.20;;;;;;5093315;28;20472;-58
2023/09/04 07:14:42;;;;;;;12.25;2.08;;;21.10;72.20;;;;;;5092902;28;20138;-57
2023/09/04 07:17:08;;;;;;;12.48;1.98;;;21.10;72.20;;;;;;5094522;28;20052;-57
2023/09/04 07:19:34;;;;;;;8.43;2.40;;;21.20;72.30;;;;;;5092794;28;20048;-58
2023/09/04 07:21:59;;;;;;;8.93;2.70;;;21.20;72.40;;;;;;5094391;28;20043;-58
2023/09/04 07:24:25;;;;;;;8.80;2.28;;;21.20;72.50;;;;;;5094359;28;20106;-58
2023/09/04 07:26:50;;;;;;;9.60;2.53;;;21.20;72.50;;;;;;5093248;28;20035;-57
2023/09/04 07:29:17;;;;;;;11.48;2.40;;;21.20;72.40;;;;;;5094449;28;20564;-58
2023/09/04 07:31:42;;;;;;;11.65;2.08;;;21.20;72.40;;;;;;5093619;28;20373;-58
2023/09/04 07:34:08;;;;;;;7.60;2.08;;;21.20;72.30;;;;;;5093485;28;20526;-58
2023/09/04 07:36:34;;;;;;;9.10;2.70;;;21.20;72.40;;;;;;5093194;28;20127;-58
2023/09/04 07:38:59;;;;;;;8.23;2.40;;;21.20;72.40;;;;;;5094190;28;20040;-58
2023/09/04 07:41:25;;;;;;;11.30;2.78;;;21.20;72.40;;;;;;5093138;28;20091;-58
2023/09/04 07:43:51;;;;;;;11.30;1.92;;;21.20;72.40;;;;;;5088680;28;20036;-57
2023/09/04 07:46:17;;;;;;;11.93;2.50;;;21.20;72.40;;;;;;5088458;28;20047;-58
2023/09/04 07:48:43;;;;;;;8.32;2.45;;;21.20;72.30;;;;;;5089594;28;20042;-57
2023/09/04 07:51:09;;;;;;;11.77;3.33;;;21.20;72.40;;;;;;5083027;28;20048;-57
2023/09/04 07:53:34;;;;;;;9.70;2.30;;;21.20;72.30;;;;;;5092214;28;20090;-58
2023/09/04 07:56:00;;;;;;;8.05;2.35;;;21.30;72.40;;;;;;5088583;28;20540;-57
2023/09/04 07:58:25;;;;;;;10.45;2.25;;;21.30;72.40;;;;;;5092783;28;20036;-58
2023/09/04 08:00:51;;;;;;;9.73;2.13;;;21.30;72.40;;;;;;5090746;28;20039;-58
2023/09/04 08:03:17;;;;;;;6.63;2.20;;;21.30;72.40;;;;;;5083531;28;20518;-58
2023/09/04 08:05:43;;;;;;;10.65;2.28;;;21.30;72.50;;;;;;5092149;28;20040;-58
2023/09/04 08:08:11;;;;;;;5.95;2.20;;;21.30;72.40;;;;;;5093213;28;20096;-58
2023/09/04 08:10:41;;;;;;;7.28;1.73;;;21.30;72.40;;;;;;5092521;28;20051;-58
2023/09/04 08:13:10;;;;;;;8.00;1.77;;;21.30;72.40;;;;;;5093334;28;20509;-58
2023/09/04 08:15:36;;;;;;;10.45;2.20;;;21.40;72.40;;;;;;5091198;28;20502;-58
2023/09/04 08:18:02;;;;;;;10.25;1.98;;;21.40;72.20;;;;;;5089874;28;20045;-57
2023/09/04 08:20:27;;;;;;;9.85;2.55;;;21.40;72.20;;;;;;5081391;28;20044;-58
2023/09/04 08:22:53;;;;;;;9.90;2.60;;;21.40;72.10;;;;;;5081875;28;20048;-58
2023/09/04 08:25:19;;;;;;;8.00;2.30;;;21.50;72.20;;;;;;5079960;28;20044;-58
2023/09/04 08:27:44;;;;;;;6.63;2.03;;;21.50;72.20;;;;;;5092952;28;20119;-58
2023/09/04 08:30:10;;;;;;;8.35;2.35;;;21.50;72.20;;;;;;5092258;28;20032;-59
2023/09/04 08:32:36;;;;;;;9.15;2.80;;;21.50;72.20;;;;;;5092627;28;20488;-58
2023/09/04 08:35:02;;;;;;;9.48;2.70;;;21.50;72.00;;;;;;5093194;28;20041;-58
2023/09/04 08:37:27;;;;;;;7.38;2.50;;;21.50;71.80;;;;;;5092036;28;20056;-58
2023/09/04 08:39:53;;;;;;;5.93;2.40;;;21.50;71.80;;;;;;5092842;28;20590;-58
2023/09/04 08:42:19;;;;;;;6.13;2.28;;;21.50;71.70;;;;;;5092796;28;20101;-58
2023/09/04 08:44:44;;;;;;;5.80;2.30;;;21.40;71.60;;;;;;5091886;28;20050;-58
2023/09/04 08:47:10;;;;;;;5.72;2.40;;;21.50;71.70;;;;;;5091786;28;20046;-58
2023/09/04 08:49:37;;;;;;;6.47;2.30;;;21.50;71.70;;;;;;5092841;28;20051;-58
2023/09/04 08:52:03;;;;;;;6.55;2.53;;;21.50;71.70;;;;;;5091992;28;20510;-58
2023/09/04 08:54:29;;;;;;;10.02;2.40;;;21.50;71.70;;;;;;5074749;28;20120;-58
2023/09/04 08:56:56;;;;;;;7.22;2.20;;;21.50;71.70;;;;;;5091445;28;20193;-58
2023/09/04 08:59:21;;;;;;;5.90;2.30;;;21.50;71.70;;;;;;5074360;28;20119;-58
2023/09/04 09:01:47;;;;;;;7.03;2.10;;;21.50;71.70;;;;;;5092052;28;20126;-58
2023/09/04 09:04:12;;;;;;;6.38;2.03;;;21.50;71.70;;;;;;5090592;28;20044;-57
2023/09/04 09:06:38;;;;;;;8.07;2.13;;;21.50;71.70;;;;;;5084694;28;20036;-58
2023/09/04 09:09:04;;;;;;;8.10;2.08;;;21.50;71.60;;;;;;5071494;28;20557;-58
2023/09/04 09:11:29;;;;;;;3.55;1.73;;;21.50;71.60;;;;;;5072498;28;20043;-58
2023/09/04 09:13:55;;;;;;;5.28;2.00;;;21.50;71.70;;;;;;5088361;28;20048;-58
2023/09/04 09:16:21;;;;;;;4.53;1.77;;;21.50;71.70;;;;;;5091300;28;20157;-57
2023/09/04 09:18:47;;;;;;;4.35;1.95;;;21.50;71.70;;;;;;5092455;28;20399;-58
2023/09/04 09:21:25;;;;;;;6.00;2.00;;;21.40;71.60;;;;;;5091864;28;20094;-58
2023/09/04 09:24:14;;;;;;;4.55;1.83;;;21.50;71.60;;;;;;5090649;28;20044;-58
2023/09/04 09:26:45;;;;;;;6.65;2.10;;;21.40;71.60;;;;;;5090017;28;20047;-57
2023/09/04 09:29:12;;;;;;;5.65;1.77;;;21.50;71.70;;;;;;5091561;28;20491;-58
2023/09/04 09:31:38;;;;;;;7.30;2.00;;;21.50;71.70;;;;;;5092138;28;20032;-57
2023/09/04 09:34:04;;;;;;;3.92;1.85;;;21.40;71.60;;;;;;5093982;28;20048;-58
2023/09/04 09:36:30;;;;;;;5.72;1.98;;;21.40;72.20;;;;;;5075939;28;20060;-58
2023/09/04 09:38:55;;;;;;;4.38;1.80;;;21.50;71.60;;;;;;5075476;28;20036;-58
2023/09/04 09:41:21;;;;;;;4.63;1.83;;;21.50;71.60;;;;;;5074860;28;20076;-58
2023/09/04 09:43:47;;;;;;;6.38;2.10;;;21.50;71.60;;;;;;5075745;28;20480;-58
2023/09/04 09:46:16;;;;;;;5.15;1.92;;;21.50;71.60;;;;;;5092473;28;20044;-58
2023/09/04 09:48:45;;;;;;;6.25;2.17;;;21.50;71.60;;;;;;5094339;28;20048;-58
2023/09/04 09:51:11;;;;;;;5.13;1.85;;;21.50;71.50;;;;;;5094959;28;20040;-63
2023/09/04 09:53:44;;;;;;;5.25;2.15;;;21.40;71.30;;;;;;5095683;28;20044;-58
2023/09/04 09:56:10;;;;;;;5.60;2.45;;;21.50;71.10;;;;;;5090375;28;20055;-57
2023/09/04 09:58:35;;;;;;;5.82;2.33;;;21.40;71.20;;;;;;5085854;28;20035;-57
2023/09/04 10:01:01;;;;;;;7.53;2.50;;;21.40;71.30;;;;;;5094314;28;20048;-57
2023/09/04 10:03:27;;;;;;;7.47;2.47;;;21.50;71.40;;;;;;5082615;28;20503;-57
2023/09/04 10:05:53;;;;;;;8.65;2.55;;;21.50;71.50;;;;;;5094473;28;20306;-57
2023/09/04 10:08:19;;;;;;;9.68;2.20;;;21.50;71.50;;;;;;5076337;28;20125;-58
2023/09/04 10:10:45;;;;;;;7.20;2.80;;;21.50;71.50;;;;;;5077325;28;20510;-57
2023/09/04 10:13:16;;;;;;;8.75;3.13;;;21.50;71.30;;;;;;5094666;28;20096;-57
2023/09/04 10:15:44;;;;;;;4.53;2.20;;;21.50;71.10;;;;;;5094786;28;20044;-57
2023/09/04 10:18:12;;;;;;;7.18;2.35;;;21.50;71.10;;;;;;5094477;28;20105;-57
2023/09/04 10:20:37;;;;;;;6.53;2.15;;;21.50;71.00;;;;;;5077538;28;20070;-57
2023/09/04 10:23:07;;;;;;;5.53;2.53;;;21.50;71.10;;;;;;5093130;28;20395;-57
2023/09/04 10:25:37;;;;;;;6.68;2.10;;;21.50;71.10;;;;;;5091718;28;20071;-58
2023/09/04 10:28:21;;;;;;;6.30;2.60;;;21.50;71.00;;;;;;5093398;28;20097;-57
2023/09/04 10:30:49;;;;;;;9.68;2.67;;;21.50;71.10;;;;;;5090496;28;20571;-57
2023/09/04 10:33:15;;;;;;;7.65;2.67;;;21.60;71.20;;;;;;5076841;28;20047;-57
2023/09/04 10:35:41;;;;;;;6.50;2.25;;;21.50;71.10;;;;;;5093807;28;20092;-57
2023/09/04 10:38:07;;;;;;;8.80;2.67;;;21.60;71.20;;;;;;5092438;28;20441;-58
2023/09/04 10:40:33;;;;;;;8.05;2.53;;;21.60;71.20;;;;;;5091723;28;20539;-59
2023/09/04 10:43:03;;;;;;;5.57;2.53;;;21.60;71.20;;;;;;5091662;28;20048;-57
2023/09/04 10:45:29;;;;;;;5.85;2.35;;;21.60;71.30;;;;;;5089516;28;20044;-58
2023/09/04 10:47:55;;;;;;;8.38;2.53;;;21.60;71.20;;;;;;5093499;28;20040;-58
2023/09/04 10:50:28;;;;;;;7.28;2.63;;;21.60;71.30;;;;;;5083996;28;20036;-58
2023/09/04 10:52:54;;;;;;;6.63;2.55;;;21.60;71.30;;;;;;5094133;28;20641;-58
2023/09/04 10:55:20;;;;;;;6.20;2.20;;;21.60;71.30;;;;;;5076512;28;20068;-58
2023/09/04 10:58:05;;;;;;;10.75;2.45;;;21.60;71.30;;;;;;5093274;28;20140;-58
2023/09/04 11:00:35;;;;;;;8.68;2.53;;;21.60;71.30;;;;;;5093660;28;20052;-58
2023/09/04 11:03:21;;;;;;;6.43;2.40;;;21.60;71.40;;;;;;5094662;28;20510;-58
2023/09/04 11:06:01;;;;;;;5.70;2.22;;;21.60;71.40;;;;;;5093647;28;20096;-58
2023/09/04 11:08:28;;;;;;;7.03;2.50;;;21.60;71.40;;;;;;5094345;28;20185;-58
2023/09/04 11:11:01;;;;;;;6.45;2.47;;;21.60;71.40;;;;;;5092970;28;20047;-58
2023/09/04 11:13:27;;;;;;;7.55;2.63;;;21.60;71.40;;;;;;5093598;28;20044;-58
2023/09/04 11:16:02;;;;;;;3.97;2.15;;;21.60;71.50;;;;;;5093896;28;20399;-58
2023/09/04 11:18:31;;;;;;;5.18;2.45;;;21.60;71.40;;;;;;5093608;28;20036;-58
2023/09/04 11:20:56;;;;;;;5.82;2.03;;;21.60;71.40;;;;;;5093832;28;20036;-58
2023/09/04 11:23:26;;;;;;;6.70;2.15;;;21.60;71.30;;;;;;5094062;28;20181;-57
2023/09/04 11:25:54;;;;;;;6.03;2.53;;;21.60;71.30;;;;;;5081961;28;20032;-60
2023/09/04 11:28:24;;;;;;;5.93;2.42;;;21.70;71.40;;;;;;5091205;28;20043;-57
2023/09/04 11:30:59;;;;;;;6.03;2.03;;;21.70;71.40;;;;;;5093618;28;20043;-57
2023/09/04 11:33:25;;;;;;;5.43;2.10;;;21.60;71.40;;;;;;5090025;28;20044;-57
2023/09/04 11:36:06;;;;;;;7.68;2.30;;;21.70;71.60;;;;;;5098138;28;20115;-58
2023/09/04 11:38:33;;;;;;;6.68;2.40;;;21.70;71.60;;;;;;5093374;28;20044;-58
2023/09/04 11:40:59;;;;;;;7.57;2.70;;;21.70;71.60;;;;;;5092442;28;20483;-70
2023/09/04 11:43:27;;;;;;;7.35;2.13;;;21.70;71.50;;;;;;5092328;28;20051;-70
2023/09/04 11:45:56;;;;;;;6.88;2.17;;;21.70;71.40;;;;;;5092596;28;20429;-70
2023/09/04 11:48:23;;;;;;;7.15;2.65;;;21.70;71.30;;;;;;5091896;28;20058;-69
2023/09/04 11:50:50;;;;;;;9.23;2.30;;;21.70;71.30;;;;;;5093230;28;20097;-69
2023/09/04 11:53:16;;;;;;;7.80;2.42;;;21.70;71.30;;;;;;5092762;28;20087;-57
2023/09/04 11:55:41;;;;;;;7.60;2.40;;;21.70;71.10;;;;;;5091787;28;20075;-57
2023/09/04 11:58:07;;;;;;;6.60;2.08;;;21.70;71.00;;;;;;5093820;28;20422;-57
2023/09/04 12:00:32;;;;;;;6.85;2.22;;;21.70;71.00;;;;;;5092606;28;20040;-59
2023/09/04 12:02:58;;;;;;;4.80;2.20;;;21.70;70.90;;;;;;5092397;28;20429;-59
2023/09/04 12:05:24;;;;;;;8.43;2.50;;;21.70;70.90;;;;;;5091937;28;20094;-61
2023/09/04 12:07:50;;;;;;;4.85;2.13;;;21.70;70.90;;;;;;5091303;28;20047;-60
2023/09/04 12:10:16;;;;;;;6.20;1.92;;;21.70;70.90;;;;;;5058960;28;20092;-57
2023/09/04 12:12:42;;;;;;;5.53;1.90;;;21.70;70.90;;;;;;5075067;28;20153;-63
2023/09/04 12:15:08;;;;;;;5.82;2.22;;;21.70;70.80;;;;;;5091511;28;20123;-60
2023/09/04 12:17:34;;;;;;;6.03;2.15;;;21.70;70.80;;;;;;5093115;28;20119;-59
2023/09/04 12:20:04;;;;;;;13.57;3.78;;;21.70;70.80;;;;;;5093501;28;20539;-60
2023/09/04 12:22:30;;;;;;;165.57;36.03;;;21.80;70.90;;;;;;5092308;28;20484;-60
2023/09/04 12:24:59;;;;;;;109.78;22.08;;;21.80;70.40;;;;;;5093058;28;20094;-59
2023/09/04 12:27:26;;;;;;;101.45;24.45;;;21.80;70.10;;;;;;5093294;28;20075;-59
2023/09/04 12:29:51;;;;;;;136.55;29.05;;;21.80;70.20;;;;;;5090962;28;20041;-59
2023/09/04 12:32:20;;;;;;;98.47;21.67;;;21.80;70.30;;;;;;5058236;28;20404;-60
2023/09/04 12:34:48;;;;;;;121.53;24.42;;;21.90;70.00;;;;;;5092926;28;20123;-59
2023/09/04 12:37:13;;;;;;;104.30;23.97;;;21.80;69.90;;;;;;5091959;28;20633;-57
2023/09/04 12:39:39;;;;;;;41.75;9.52;;;21.90;69.90;;;;;;5093059;28;20385;-57
2023/09/04 12:42:07;;;;;;;35.50;9.55;;;21.90;68.90;;;;;;5091610;28;20563;-59
2023/09/04 12:44:32;;;;;;;47.67;9.05;;;21.90;68.10;;;;;;5092154;28;20066;-58